sensor_id;sensor_type;location;lat;lon;timestamp;pressure;altitude;pressure_sealevel;temperature;humidity
51359;BME280;37448;51.588;7.248;2022-10-16T00:02:03;100449.69;;;12.81;100.00
51359;BME280;37448;51.588;7.248;2022-10-16T00:04:33;100447.34;;;12.80;100.00
51359;BME280;37448;51.588;7.248;2022-10-16T00:07:04;100452.44;;;12.78;100.00
51359;BME280;37448;51.588;7.248;2022-10-16T00:09:34;100446.91;;;12.78;100.00
51359;BME280;37448;51.588;7.248;2022-10-16T00:12:04;100433.13;;;12.74;100.00
51359;BME280;37448;51.588;7.248;2022-10-16T00:14:36;100446.09;;;12.70;100.00
51359;BME280;37448;51.588;7.248;2022-10-16T00:17:07;100455.13;;;12.67;100.00
51359;BME280;37448;51.588;7.248;2022-10-16T00:19:37;100460.19;;;12.62;100.00
51359;BME280;37448;51.588;7.248;2022-10-16T00:22:07;100450.72;;;12.56;100.00
51359;BME280;37448;51.588;7.248;2022-10-16T00:24:38;100466.84;;;12.54;100.00
51359;BME280;37448;51.588;7.248;2022-10-16T00:27:08;100470.38;;;12.51;100.00
51359;BME280;37448;51.588;7.248;2022-10-16T00:29:39;100458.53;;;12.47;100.00
51359;BME280;37448;51.588;7.248;2022-10-16T00:32:09;100462.44;;;12.46;100.00
51359;BME280;37448;51.588;7.248;2022-10-16T00:34:39;100459.69;;;12.46;100.00
51359;BME280;37448;51.588;7.248;2022-10-16T00:37:10;100467.63;;;12.51;100.00
51359;BME280;37448;51.588;7.248;2022-10-16T00:39:40;100459.72;;;12.49;100.00
51359;BME280;37448;51.588;7.248;2022-10-16T00:42:15;100456.97;;;12.49;100.00
51359;BME280;37448;51.588;7.248;2022-10-16T00:44:56;100462.84;;;12.48;100.00
51359;BME280;37448;51.588;7.248;2022-10-16T00:50:09;100465.19;;;12.46;100.00
51359;BME280;37448;51.588;7.248;2022-10-16T00:52:44;100467.97;;;12.46;100.00
51359;BME280;37448;51.588;7.248;2022-10-16T00:55:16;100469.56;;;12.47;100.00
51359;BME280;37448;51.588;7.248;2022-10-16T00:57:46;100475.44;;;12.45;100.00
51359;BME280;37448;51.588;7.248;2022-10-16T01:00:23;100471.09;;;12.44;100.00
51359;BME280;37448;51.588;7.248;2022-10-16T01:02:59;100477.00;;;12.43;100.00
51359;BME280;37448;51.588;7.248;2022-10-16T01:05:38;100471.47;;;12.43;100.00
51359;BME280;37448;51.588;7.248;2022-10-16T01:08:19;100465.91;;;12.39;100.00
51359;BME280;37448;51.588;7.248;2022-10-16T01:10:57;100471.84;;;12.41;100.00
51359;BME280;37448;51.588;7.248;2022-10-16T01:13:37;100463.16;;;12.39;100.00
51359;BME280;37448;51.588;7.248;2022-10-16T01:16:37;100472.22;;;12.40;100.00
51359;BME280;37448;51.588;7.248;2022-10-16T01:19:14;100475.41;;;12.42;100.00
51359;BME280;37448;51.588;7.248;2022-10-16T01:21:47;100472.66;;;12.42;100.00
51359;BME280;37448;51.588;7.248;2022-10-16T01:24:38;100465.91;;;12.39;100.00
51359;BME280;37448;51.588;7.248;2022-10-16T01:27:30;100467.91;;;12.39;100.00
51359;BME280;37448;51.588;7.248;2022-10-16T01:30:23;100473.38;;;12.35;100.00
51359;BME280;37448;51.588;7.248;2022-10-16T01:35:34;100466.66;;;12.32;100.00
51359;BME280;37448;51.588;7.248;2022-10-16T01:38:19;100461.13;;;12.29;100.00
51359;BME280;37448;51.588;7.248;2022-10-16T01:40:55;100465.03;;;12.28;100.00
51359;BME280;37448;51.588;7.248;2022-10-16T01:43:32;100464.25;;;12.27;100.00
51359;BME280;37448;51.588;7.248;2022-10-16T01:46:05;100452.41;;;12.23;100.00
51359;BME280;37448;51.588;7.248;2022-10-16T01:48:36;100461.84;;;12.22;100.00
51359;BME280;37448;51.588;7.248;2022-10-16T01:51:10;100449.19;;;12.18;100.00
51359;BME280;37448;51.588;7.248;2022-10-16T01:53:43;100450.75;;;12.15;100.00
51359;BME280;37448;51.588;7.248;2022-10-16T01:56:17;100458.19;;;12.11;100.00
51359;BME280;37448;51.588;7.248;2022-10-16T01:58:55;100450.72;;;12.08;100.00
51359;BME280;37448;51.588;7.248;2022-10-16T02:01:30;100436.50;;;12.06;100.00
51359;BME280;37448;51.588;7.248;2022-10-16T02:04:11;100452.22;;;12.02;100.00
51359;BME280;37448;51.588;7.248;2022-10-16T02:06:45;100452.22;;;12.02;100.00
51359;BME280;37448;51.588;7.248;2022-10-16T02:09:15;100449.84;;;12.01;100.00
51359;BME280;37448;51.588;7.248;2022-10-16T02:11:47;100447.47;;;11.99;100.00
51359;BME280;37448;51.588;7.248;2022-10-16T02:14:19;100449.78;;;11.97;100.00
51359;BME280;37448;51.588;7.248;2022-10-16T02:16:50;100453.75;;;11.96;100.00
51359;BME280;37448;51.588;7.248;2022-10-16T02:19:21;100468.66;;;11.95;100.00
51359;BME280;37448;51.588;7.248;2022-10-16T02:21:58;100468.28;;;11.97;100.00
51359;BME280;37448;51.588;7.248;2022-10-16T02:24:42;100468.28;;;11.97;100.00
51359;BME280;37448;51.588;7.248;2022-10-16T02:27:36;100475.00;;;11.99;100.00
51359;BME280;37448;51.588;7.248;2022-10-16T02:30:14;100468.72;;;12.02;100.00
51359;BME280;37448;51.588;7.248;2022-10-16T02:32:48;100480.16;;;12.01;100.00
51359;BME280;37448;51.588;7.248;2022-10-16T02:35:21;100478.97;;;12.02;100.00
51359;BME280;37448;51.588;7.248;2022-10-16T02:37:53;100481.38;;;12.07;100.00
51359;BME280;37448;51.588;7.248;2022-10-16T02:40:25;100480.59;;;12.10;100.00
51359;BME280;37448;51.588;7.248;2022-10-16T02:42:56;100486.13;;;12.10;100.00
51359;BME280;37448;51.588;7.248;2022-10-16T02:45:26;100484.59;;;12.12;100.00
51359;BME280;37448;51.588;7.248;2022-10-16T02:47:57;100483.78;;;12.12;100.00
51359;BME280;37448;51.588;7.248;2022-10-16T02:50:27;100490.94;;;12.16;100.00
51359;BME280;37448;51.588;7.248;2022-10-16T02:52:57;100487.38;;;12.16;100.00
51359;BME280;37448;51.588;7.248;2022-10-16T02:55:28;100488.16;;;12.16;100.00
51359;BME280;37448;51.588;7.248;2022-10-16T02:57:58;100479.91;;;12.16;100.00
51359;BME280;37448;51.588;7.248;2022-10-16T03:00:28;100485.81;;;12.18;100.00
51359;BME280;37448;51.588;7.248;2022-10-16T03:02:59;100488.56;;;12.18;100.00
51359;BME280;37448;51.588;7.248;2022-10-16T03:05:29;100483.06;;;12.18;100.00
51359;BME280;37448;51.588;7.248;2022-10-16T03:08:00;100479.94;;;12.20;100.00
51359;BME280;37448;51.588;7.248;2022-10-16T03:10:30;100483.88;;;12.22;100.00
51359;BME280;37448;51.588;7.248;2022-10-16T03:13:01;100488.63;;;12.22;100.00
51359;BME280;37448;51.588;7.248;2022-10-16T03:15:31;100500.47;;;12.26;100.00
51359;BME280;37448;51.588;7.248;2022-10-16T03:18:01;100495.00;;;12.29;100.00
51359;BME280;37448;51.588;7.248;2022-10-16T03:20:32;100502.09;;;12.30;100.00
51359;BME280;37448;51.588;7.248;2022-10-16T03:23:02;100509.16;;;12.31;100.00
51359;BME280;37448;51.588;7.248;2022-10-16T03:25:33;100505.66;;;12.34;100.00
51359;BME280;37448;51.588;7.248;2022-10-16T03:28:03;100500.56;;;12.36;100.00
51359;BME280;37448;51.588;7.248;2022-10-16T03:30:33;100491.13;;;12.38;100.00
51359;BME280;37448;51.588;7.248;2022-10-16T03:33:04;100484.81;;;12.37;100.00
51359;BME280;37448;51.588;7.248;2022-10-16T03:35:35;100487.94;;;12.35;100.00
51359;BME280;37448;51.588;7.248;2022-10-16T03:38:05;100484.00;;;12.33;100.00
51359;BME280;37448;51.588;7.248;2022-10-16T03:40:36;100491.81;;;12.27;100.00
51359;BME280;37448;51.588;7.248;2022-10-16T03:43:06;100486.69;;;12.26;100.00
51359;BME280;37448;51.588;7.248;2022-10-16T03:45:36;100485.13;;;12.28;100.00
51359;BME280;37448;51.588;7.248;2022-10-16T03:48:07;100483.88;;;12.22;100.00
51359;BME280;37448;51.588;7.248;2022-10-16T03:50:37;100480.72;;;12.20;100.00
51359;BME280;37448;51.588;7.248;2022-10-16T03:53:07;100475.97;;;12.17;100.00
51359;BME280;37448;51.588;7.248;2022-10-16T03:55:38;100480.66;;;12.13;100.00
51359;BME280;37448;51.588;7.248;2022-10-16T03:58:08;100480.56;;;12.06;100.00
51359;BME280;37448;51.588;7.248;2022-10-16T04:00:45;100481.34;;;12.03;100.00
51359;BME280;37448;51.588;7.248;2022-10-16T04:03:17;100483.66;;;12.01;100.00
51359;BME280;37448;51.588;7.248;2022-10-16T04:05:49;100498.53;;;11.93;100.00
51359;BME280;37448;51.588;7.248;2022-10-16T04:08:20;100483.53;;;11.87;100.00
51359;BME280;37448;51.588;7.248;2022-10-16T04:10:50;100494.13;;;11.85;100.00
51359;BME280;37448;51.588;7.248;2022-10-16T04:13:20;100494.47;;;11.80;100.00
51359;BME280;37448;51.588;7.248;2022-10-16T04:15:51;100492.47;;;11.77;100.00
51359;BME280;37448;51.588;7.248;2022-10-16T04:18:21;100504.63;;;11.76;100.00
51359;BME280;37448;51.588;7.248;2022-10-16T04:20:51;100491.25;;;11.74;100.00
51359;BME280;37448;51.588;7.248;2022-10-16T04:23:22;100509.34;;;11.75;100.00
51359;BME280;37448;51.588;7.248;2022-10-16T04:25:53;100520.03;;;11.80;100.00
51359;BME280;37448;51.588;7.248;2022-10-16T04:28:23;100514.97;;;11.82;100.00
51359;BME280;37448;51.588;7.248;2022-10-16T04:30:54;100523.19;;;11.79;100.00
51359;BME280;37448;51.588;7.248;2022-10-16T04:33:24;100518.84;;;11.78;100.00
51359;BME280;37448;51.588;7.248;2022-10-16T04:36:01;100515.66;;;11.76;100.00
51359;BME280;37448;51.588;7.248;2022-10-16T04:38:32;100525.88;;;11.75;100.00
51359;BME280;37448;51.588;7.248;2022-10-16T04:41:03;100521.13;;;11.72;100.00
51359;BME280;37448;51.588;7.248;2022-10-16T04:43:33;100524.25;;;11.71;100.00
51359;BME280;37448;51.588;7.248;2022-10-16T04:46:04;100515.53;;;11.69;100.00
51359;BME280;37448;51.588;7.248;2022-10-16T04:48:35;100531.66;;;11.67;100.00
51359;BME280;37448;51.588;7.248;2022-10-16T04:51:05;100540.66;;;11.64;100.00
51359;BME280;37448;51.588;7.248;2022-10-16T04:53:35;100539.81;;;11.60;100.00
51359;BME280;37448;51.588;7.248;2022-10-16T04:56:06;100532.72;;;11.59;100.00
51359;BME280;37448;51.588;7.248;2022-10-16T04:58:36;100532.66;;;11.55;100.00
51359;BME280;37448;51.588;7.248;2022-10-16T05:01:07;100531.88;;;11.55;100.00
51359;BME280;37448;51.588;7.248;2022-10-16T05:03:37;100544.06;;;11.54;100.00
51359;BME280;37448;51.588;7.248;2022-10-16T05:06:07;100543.69;;;11.55;100.00
51359;BME280;37448;51.588;7.248;2022-10-16T05:08:38;100534.63;;;11.55;100.00
51359;BME280;37448;51.588;7.248;2022-10-16T05:11:08;100542.16;;;11.58;100.00
51359;BME280;37448;51.588;7.248;2022-10-16T05:13:39;100553.16;;;11.58;100.00
51359;BME280;37448;51.588;7.248;2022-10-16T05:16:09;100554.31;;;11.57;100.00
51359;BME280;37448;51.588;7.248;2022-10-16T05:18:39;100564.19;;;11.58;100.00
51359;BME280;37448;51.588;7.248;2022-10-16T05:21:10;100564.59;;;11.60;100.00
51359;BME280;37448;51.588;7.248;2022-10-16T05:23:40;100567.38;;;11.63;100.00
51359;BME280;37448;51.588;7.248;2022-10-16T05:26:10;100572.09;;;11.63;100.00
51359;BME280;37448;51.588;7.248;2022-10-16T05:28:41;100575.31;;;11.68;100.00
51359;BME280;37448;51.588;7.248;2022-10-16T05:31:11;100579.31;;;11.71;100.00
51359;BME280;37448;51.588;7.248;2022-10-16T05:33:42;100574.22;;;11.73;100.00
51359;BME280;37448;51.588;7.248;2022-10-16T05:36:14;100586.03;;;11.73;100.00
51359;BME280;37448;51.588;7.248;2022-10-16T05:38:44;100591.53;;;11.73;100.00
51359;BME280;37448;51.588;7.248;2022-10-16T05:41:15;100586.03;;;11.73;100.00
51359;BME280;37448;51.588;7.248;2022-10-16T05:43:45;100580.16;;;11.75;100.00
51359;BME280;37448;51.588;7.248;2022-10-16T05:46:15;100587.25;;;11.76;100.00
51359;BME280;37448;51.588;7.248;2022-10-16T05:48:46;100584.47;;;11.76;100.00
51359;BME280;37448;51.588;7.248;2022-10-16T05:51:16;100591.94;;;11.75;100.00
51359;BME280;37448;51.588;7.248;2022-10-16T05:53:47;100593.53;;;11.76;100.00
51359;BME280;37448;51.588;7.248;2022-10-16T05:56:17;100599.09;;;11.80;100.00
51359;BME280;37448;51.588;7.248;2022-10-16T05:58:48;100599.84;;;11.77;100.00
51359;BME280;37448;51.588;7.248;2022-10-16T06:01:19;100599.09;;;11.80;100.00
51359;BME280;37448;51.588;7.248;2022-10-16T06:03:51;100606.19;;;11.81;100.00
51359;BME280;37448;51.588;7.248;2022-10-16T06:06:25;100616.44;;;11.84;100.00
51359;BME280;37448;51.588;7.248;2022-10-16T06:08:56;100626.31;;;11.85;100.00
51359;BME280;37448;51.588;7.248;2022-10-16T06:11:29;100624.34;;;11.85;100.00
51359;BME280;37448;51.588;7.248;2022-10-16T06:14:01;100626.75;;;11.87;100.00
51359;BME280;37448;51.588;7.248;2022-10-16T06:16:34;100625.94;;;11.86;100.00
51359;BME280;37448;51.588;7.248;2022-10-16T06:19:05;100632.25;;;11.87;100.00
51359;BME280;37448;51.588;7.248;2022-10-16T06:21:36;100636.59;;;11.88;100.00
51359;BME280;37448;51.588;7.248;2022-10-16T06:24:06;100636.59;;;11.88;100.00
51359;BME280;37448;51.588;7.248;2022-10-16T06:26:37;100637.75;;;11.87;100.00
51359;BME280;37448;51.588;7.248;2022-10-16T06:29:08;100639.41;;;11.92;100.00
51359;BME280;37448;51.588;7.248;2022-10-16T06:31:38;100645.75;;;11.96;100.00
51359;BME280;37448;51.588;7.248;2022-10-16T06:34:10;100655.63;;;12.00;100.00
51359;BME280;37448;51.588;7.248;2022-10-16T06:36:41;100645.47;;;12.04;100.00
51359;BME280;37448;51.588;7.248;2022-10-16T06:39:13;100648.63;;;12.06;100.00
51359;BME280;37448;51.588;7.248;2022-10-16T06:41:43;100652.16;;;12.07;100.00
51359;BME280;37448;51.588;7.248;2022-10-16T06:44:14;100661.28;;;12.11;100.00
51359;BME280;37448;51.588;7.248;2022-10-16T06:46:45;100651.47;;;12.13;100.00
51359;BME280;37448;51.588;7.248;2022-10-16T06:49:15;100664.97;;;12.22;100.00
51359;BME280;37448;51.588;7.248;2022-10-16T06:51:51;100668.97;;;12.28;100.00
51359;BME280;37448;51.588;7.248;2022-10-16T06:54:21;100679.28;;;12.34;100.00
51359;BME280;37448;51.588;7.248;2022-10-16T06:56:52;100686.84;;;12.41;100.00
51359;BME280;37448;51.588;7.248;2022-10-16T06:59:24;100684.56;;;12.47;100.00
51359;BME280;37448;51.588;7.248;2022-10-16T07:01:54;100695.66;;;12.54;100.00
51359;BME280;37448;51.588;7.248;2022-10-16T07:04:25;100697.66;;;12.57;100.00
51359;BME280;37448;51.588;7.248;2022-10-16T07:06:55;100696.16;;;12.63;100.00
51359;BME280;37448;51.588;7.248;2022-10-16T07:09:25;100700.91;;;12.66;100.00
51359;BME280;37448;51.588;7.248;2022-10-16T07:11:56;100708.06;;;12.70;100.00
51359;BME280;37448;51.588;7.248;2022-10-16T07:14:26;100712.09;;;12.80;100.00
51359;BME280;37448;51.588;7.248;2022-10-16T07:16:57;100715.84;;;13.39;100.00
51359;BME280;37448;51.588;7.248;2022-10-16T07:19:27;100694.88;;;13.85;100.00
51359;BME280;37448;51.588;7.248;2022-10-16T07:21:58;100694.88;;;13.82;100.00
51359;BME280;37448;51.588;7.248;2022-10-16T07:24:29;100715.19;;;13.56;100.00
51359;BME280;37448;51.588;7.248;2022-10-16T07:26:59;100725.25;;;13.31;100.00
51359;BME280;37448;51.588;7.248;2022-10-16T07:29:30;100725.53;;;13.18;100.00
51359;BME280;37448;51.588;7.248;2022-10-16T07:32:01;100723.91;;;13.14;100.00
51359;BME280;37448;51.588;7.248;2022-10-16T07:34:31;100724.59;;;13.48;100.00
51359;BME280;37448;51.588;7.248;2022-10-16T07:37:02;100708.41;;;15.19;100.00
51359;BME280;37448;51.588;7.248;2022-10-16T07:39:32;100692.19;;;14.96;100.00
51359;BME280;37448;51.588;7.248;2022-10-16T07:42:02;100694.97;;;15.81;100.00
51359;BME280;37448;51.588;7.248;2022-10-16T07:44:33;100691.22;;;16.44;100.00
51359;BME280;37448;51.588;7.248;2022-10-16T07:47:03;100697.75;;;15.74;100.00
51359;BME280;37448;51.588;7.248;2022-10-16T07:49:33;100710.44;;;15.54;100.00
51359;BME280;37448;51.588;7.248;2022-10-16T07:52:04;100705.28;;;15.81;100.00
51359;BME280;37448;51.588;7.248;2022-10-16T07:54:34;100712.69;;;16.26;100.00
51359;BME280;37448;51.588;7.248;2022-10-16T07:57:05;100703.63;;;17.98;100.00
51359;BME280;37448;51.588;7.248;2022-10-16T07:59:35;100715.56;;;18.63;100.00
51359;BME280;37448;51.588;7.248;2022-10-16T08:02:06;100706.47;;;19.66;100.00
51359;BME280;37448;51.588;7.248;2022-10-16T08:04:37;100716.69;;;20.39;100.00
51359;BME280;37448;51.588;7.248;2022-10-16T08:07:07;100724.72;;;21.45;100.00
51359;BME280;37448;51.588;7.248;2022-10-16T08:09:38;100727.84;;;21.14;100.00
51359;BME280;37448;51.588;7.248;2022-10-16T08:12:09;100735.72;;;22.00;100.00
51359;BME280;37448;51.588;7.248;2022-10-16T08:14:40;100739.53;;;21.90;100.00
51359;BME280;37448;51.588;7.248;2022-10-16T08:17:13;100746.56;;;21.66;100.00
51359;BME280;37448;51.588;7.248;2022-10-16T08:19:45;100741.31;;;21.35;100.00
51359;BME280;37448;51.588;7.248;2022-10-16T08:22:16;100745.69;;;22.01;100.00
51359;BME280;37448;51.588;7.248;2022-10-16T08:24:46;100747.63;;;21.72;100.00
51359;BME280;37448;51.588;7.248;2022-10-16T08:27:17;100747.41;;;21.30;100.00
51359;BME280;37448;51.588;7.248;2022-10-16T08:29:48;100748.56;;;21.33;100.00
51359;BME280;37448;51.588;7.248;2022-10-16T08:32:19;100744.28;;;21.61;100.00
51359;BME280;37448;51.588;7.248;2022-10-16T08:34:49;100755.13;;;21.59;100.00
51359;BME280;37448;51.588;7.248;2022-10-16T08:37:20;100752.34;;;22.20;100.00
51359;BME280;37448;51.588;7.248;2022-10-16T08:39:50;100760.97;;;21.64;100.00
51359;BME280;37448;51.588;7.248;2022-10-16T08:45:30;100770.88;;;22.01;100.00
51359;BME280;37448;51.588;7.248;2022-10-16T08:48:08;100773.13;;;22.06;100.00
51359;BME280;37448;51.588;7.248;2022-10-16T08:50:41;100784.16;;;20.93;100.00
51359;BME280;37448;51.588;7.248;2022-10-16T08:53:30;100789.53;;;21.39;100.00
51359;BME280;37448;51.588;7.248;2022-10-16T08:56:01;100793.59;;;21.55;100.00
51359;BME280;37448;51.588;7.248;2022-10-16T08:58:31;100798.94;;;22.43;100.00
51359;BME280;37448;51.588;7.248;2022-10-16T09:01:04;100801.38;;;22.41;100.00
51359;BME280;37448;51.588;7.248;2022-10-16T09:12:14;100805.75;;;21.97;100.00
51359;BME280;37448;51.588;7.248;2022-10-16T09:15:28;100814.69;;;22.37;100.00
51359;BME280;37448;51.588;7.248;2022-10-16T09:18:37;100818.06;;;22.60;100.00
51359;BME280;37448;51.588;7.248;2022-10-16T09:21:14;100819.47;;;22.23;100.00
51359;BME280;37448;51.588;7.248;2022-10-16T09:23:47;100819.59;;;22.49;100.00
51359;BME280;37448;51.588;7.248;2022-10-16T09:26:17;100831.53;;;22.20;100.00
51359;BME280;37448;51.588;7.248;2022-10-16T09:28:52;100831.34;;;21.63;100.00
51359;BME280;37448;51.588;7.248;2022-10-16T09:31:22;100831.44;;;21.92;100.00
51359;BME280;37448;51.588;7.248;2022-10-16T09:33:57;100831.81;;;20.86;100.00
51359;BME280;37448;51.588;7.248;2022-10-16T09:36:28;100833.88;;;21.57;100.00
51359;BME280;37448;51.588;7.248;2022-10-16T09:39:03;100838.63;;;21.24;100.00
51359;BME280;37448;51.588;7.248;2022-10-16T09:41:37;100839.94;;;21.72;100.00
51359;BME280;37448;51.588;7.248;2022-10-16T09:44:28;100833.38;;;22.11;100.00
51359;BME280;37448;51.588;7.248;2022-10-16T09:47:18;100824.44;;;21.83;100.00
51359;BME280;37448;51.588;7.248;2022-10-16T09:52:26;100835.47;;;22.23;100.00
51359;BME280;37448;51.588;7.248;2022-10-16T09:54:58;100837.91;;;21.88;100.00
51359;BME280;37448;51.588;7.248;2022-10-16T09:57:29;100826.97;;;21.78;100.00
51359;BME280;37448;51.588;7.248;2022-10-16T10:00:08;100842.03;;;22.16;100.00
51359;BME280;37448;51.588;7.248;2022-10-16T10:02:38;100838.34;;;22.36;100.00
51359;BME280;37448;51.588;7.248;2022-10-16T10:05:21;100839.94;;;22.65;100.00
51359;BME280;37448;51.588;7.248;2022-10-16T10:07:56;100837.66;;;21.99;100.00
51359;BME280;37448;51.588;7.248;2022-10-16T10:10:29;100840.66;;;22.69;100.00
51359;BME280;37448;51.588;7.248;2022-10-16T10:13:00;100841.63;;;22.47;100.00
51359;BME280;37448;51.588;7.248;2022-10-16T10:15:34;100838.91;;;22.14;100.00
51359;BME280;37448;51.588;7.248;2022-10-16T10:18:17;100841.25;;;20.92;100.00
51359;BME280;37448;51.588;7.248;2022-10-16T10:20:59;100840.28;;;20.16;100.00
51359;BME280;37448;51.588;7.248;2022-10-16T10:23:30;100845.69;;;19.53;100.00
51359;BME280;37448;51.588;7.248;2022-10-16T10:26:09;100839.81;;;19.14;100.00
51359;BME280;37448;51.588;7.248;2022-10-16T10:31:33;100844.50;;;18.56;100.00
51359;BME280;37448;51.588;7.248;2022-10-16T10:37:27;100849.94;;;18.26;100.00
51359;BME280;37448;51.588;7.248;2022-10-16T10:42:59;100851.97;;;18.22;100.00
51359;BME280;37448;51.588;7.248;2022-10-16T10:45:54;100856.91;;;18.04;100.00
51359;BME280;37448;51.588;7.248;2022-10-16T10:48:52;100856.00;;;18.17;100.00
51359;BME280;37448;51.588;7.248;2022-10-16T10:51:28;100863.94;;;18.19;100.00
51359;BME280;37448;51.588;7.248;2022-10-16T10:54:15;100858.28;;;18.26;100.00
51359;BME280;37448;51.588;7.248;2022-10-16T10:57:06;100868.78;;;18.08;100.00
51359;BME280;37448;51.588;7.248;2022-10-16T11:02:42;100847.06;;;17.92;100.00
51359;BME280;37448;51.588;7.248;2022-10-16T11:08:09;100854.38;;;17.72;100.00
51359;BME280;37448;51.588;7.248;2022-10-16T11:10:54;100851.66;;;17.61;100.00
51359;BME280;37448;51.588;7.248;2022-10-16T11:16:13;100859.66;;;17.52;100.00
51359;BME280;37448;51.588;7.248;2022-10-16T11:18:52;100854.94;;;17.42;100.00
51359;BME280;37448;51.588;7.248;2022-10-16T11:21:30;100859.41;;;17.22;100.00
51359;BME280;37448;51.588;7.248;2022-10-16T11:24:22;100859.84;;;17.17;100.00
51359;BME280;37448;51.588;7.248;2022-10-16T11:26:53;100864.59;;;17.16;100.00
51359;BME280;37448;51.588;7.248;2022-10-16T11:29:29;100861.44;;;17.18;100.00
51359;BME280;37448;51.588;7.248;2022-10-16T11:32:10;100864.56;;;17.20;100.00
51359;BME280;37448;51.588;7.248;2022-10-16T11:34:48;100867.72;;;17.25;100.00
51359;BME280;37448;51.588;7.248;2022-10-16T11:37:33;100862.91;;;17.36;100.00
51359;BME280;37448;51.588;7.248;2022-10-16T11:40:21;100871.63;;;17.39;100.00
51359;BME280;37448;51.588;7.248;2022-10-16T11:43:10;100866.06;;;17.42;100.00
51359;BME280;37448;51.588;7.248;2022-10-16T11:45:47;100865.22;;;17.45;100.00
51359;BME280;37448;51.588;7.248;2022-10-16T11:51:19;100866.78;;;17.60;100.00
51359;BME280;37448;51.588;7.248;2022-10-16T11:54:14;100852.44;;;17.62;100.00
51359;BME280;37448;51.588;7.248;2022-10-16T11:56:49;100865.53;;;17.68;100.00
51359;BME280;37448;51.588;7.248;2022-10-16T12:04:44;100880.84;;;17.94;100.00
51359;BME280;37448;51.588;7.248;2022-10-16T12:07:20;100875.66;;;17.93;100.00
51359;BME280;37448;51.588;7.248;2022-10-16T12:09:53;100880.75;;;18.05;100.00
51359;BME280;37448;51.588;7.248;2022-10-16T12:12:37;100870.03;;;18.00;100.00
51359;BME280;37448;51.588;7.248;2022-10-16T12:15:27;100887.50;;;18.04;100.00
51359;BME280;37448;51.588;7.248;2022-10-16T12:17:58;100879.56;;;18.02;100.00
51359;BME280;37448;51.588;7.248;2022-10-16T12:20:31;100887.06;;;18.09;100.00
51359;BME280;37448;51.588;7.248;2022-10-16T12:23:04;100882.66;;;18.15;100.00
51359;BME280;37448;51.588;7.248;2022-10-16T12:25:36;100883.88;;;18.10;100.00
51359;BME280;37448;51.588;7.248;2022-10-16T12:28:25;100888.25;;;18.11;100.00
51359;BME280;37448;51.588;7.248;2022-10-16T12:30:59;100883.16;;;18.03;100.00
51359;BME280;37448;51.588;7.248;2022-10-16T12:33:35;100883.22;;;17.92;100.00
51359;BME280;37448;51.588;7.248;2022-10-16T12:36:30;100884.09;;;17.78;100.00
51359;BME280;37448;51.588;7.248;2022-10-16T12:39:02;100882.94;;;17.76;100.00
51359;BME280;37448;51.588;7.248;2022-10-16T12:41:34;100885.75;;;17.72;100.00
51359;BME280;37448;51.588;7.248;2022-10-16T12:44:20;100881.34;;;17.75;100.00
51359;BME280;37448;51.588;7.248;2022-10-16T12:46:51;100885.75;;;17.72;100.00
51359;BME280;37448;51.588;7.248;2022-10-16T12:49:30;100896.44;;;17.74;100.00
51359;BME280;37448;51.588;7.248;2022-10-16T12:52:01;100884.88;;;17.83;100.00
51359;BME280;37448;51.588;7.248;2022-10-16T12:54:36;100897.56;;;17.91;100.00
51359;BME280;37448;51.588;7.248;2022-10-16T13:08:34;100890.28;;;18.04;100.00
51359;BME280;37448;51.588;7.248;2022-10-16T13:14:49;100899.97;;;17.85;100.00
51359;BME280;37448;51.588;7.248;2022-10-16T13:22:54;100909.25;;;17.64;100.00
51359;BME280;37448;51.588;7.248;2022-10-16T13:28:28;100908.88;;;17.59;100.00
51359;BME280;37448;51.588;7.248;2022-10-16T13:31:01;100906.91;;;17.52;100.00
51359;BME280;37448;51.588;7.248;2022-10-16T13:33:36;100897.78;;;17.48;100.00
51359;BME280;37448;51.588;7.248;2022-10-16T13:36:20;100905.75;;;17.43;100.00
51359;BME280;37448;51.588;7.248;2022-10-16T13:42:10;100912.56;;;17.31;100.00
51359;BME280;37448;51.588;7.248;2022-10-16T13:44:47;100918.09;;;18.04;100.00
51359;BME280;37448;51.588;7.248;2022-10-16T13:47:27;100918.91;;;18.52;100.00
51359;BME280;37448;51.588;7.248;2022-10-16T13:50:05;100929.31;;;18.86;100.00
51359;BME280;37448;51.588;7.248;2022-10-16T13:52:35;100929.63;;;18.95;100.00
51359;BME280;37448;51.588;7.248;2022-10-16T13:55:15;100926.19;;;19.14;100.00
51359;BME280;37448;51.588;7.248;2022-10-16T13:57:45;100931.38;;;19.15;100.00
51359;BME280;37448;51.588;7.248;2022-10-16T14:00:21;100927.44;;;19.13;100.00
51359;BME280;37448;51.588;7.248;2022-10-16T14:02:57;100920.22;;;19.15;100.00
51359;BME280;37448;51.588;7.248;2022-10-16T14:05:28;100913.25;;;19.00;100.00
51359;BME280;37448;51.588;7.248;2022-10-16T14:07:59;100922.25;;;18.78;100.00
51359;BME280;37448;51.588;7.248;2022-10-16T14:10:31;100912.72;;;18.75;100.00
51359;BME280;37448;51.588;7.248;2022-10-16T14:13:05;100916.06;;;18.59;100.00
51359;BME280;37448;51.588;7.248;2022-10-16T14:15:36;100912.16;;;18.50;100.00
51359;BME280;37448;51.588;7.248;2022-10-16T14:18:07;100918.50;;;18.54;100.00
51359;BME280;37448;51.588;7.248;2022-10-16T14:20:44;100916.78;;;18.67;100.00
51359;BME280;37448;51.588;7.248;2022-10-16T14:23:36;100923.38;;;18.84;100.00
51359;BME280;37448;51.588;7.248;2022-10-16T14:28:40;100935.47;;;19.04;100.00
51359;BME280;37448;51.588;7.248;2022-10-16T14:31:23;100943.09;;;19.00;100.00